sensor_id;sensor_type;location;lat;lon;timestamp;P1;durP1;ratioP1;P2;durP2;ratioP2
40072;SDS011;25774;52.256;9.356;2023-04-06T00:00:38;10.67;;;5.27;;
40072;SDS011;25774;52.256;9.356;2023-04-06T00:03:03;10.20;;;6.27;;
40072;SDS011;25774;52.256;9.356;2023-04-06T00:05:29;10.07;;;6.50;;
40072;SDS011;25774;52.256;9.356;2023-04-06T00:07:55;10.10;;;6.10;;
40072;SDS011;25774;52.256;9.356;2023-04-06T00:10:21;11.85;;;6.93;;
40072;SDS011;25774;52.256;9.356;2023-04-06T00:12:46;13.43;;;6.80;;
40072;SDS011;25774;52.256;9.356;2023-04-06T00:15:11;10.27;;;6.00;;
40072;SDS011;25774;52.256;9.356;2023-04-06T00:17:36;9.37;;;5.87;;
40072;SDS011;25774;52.256;9.356;2023-04-06T00:20:02;12.73;;;7.43;;
40072;SDS011;25774;52.256;9.356;2023-04-06T00:22:28;11.63;;;6.50;;
40072;SDS011;25774;52.256;9.356;2023-04-06T00:24:54;10.05;;;6.43;;
40072;SDS011;25774;52.256;9.356;2023-04-06T00:27:19;12.35;;;6.68;;
40072;SDS011;25774;52.256;9.356;2023-04-06T00:29:44;11.97;;;6.83;;
40072;SDS011;25774;52.256;9.356;2023-04-06T00:32:10;11.85;;;7.03;;
40072;SDS011;25774;52.256;9.356;2023-04-06T00:34:35;15.23;;;6.90;;
40072;SDS011;25774;52.256;9.356;2023-04-06T00:37:00;13.90;;;7.10;;
40072;SDS011;25774;52.256;9.356;2023-04-06T00:39:26;8.73;;;5.60;;
40072;SDS011;25774;52.256;9.356;2023-04-06T00:41:51;7.73;;;4.30;;
40072;SDS011;25774;52.256;9.356;2023-04-06T00:44:17;7.28;;;4.07;;
40072;SDS011;25774;52.256;9.356;2023-04-06T00:46:42;7.23;;;4.50;;
40072;SDS011;25774;52.256;9.356;2023-04-06T00:49:08;11.53;;;6.17;;
40072;SDS011;25774;52.256;9.356;2023-04-06T00:51:33;10.30;;;5.87;;
40072;SDS011;25774;52.256;9.356;2023-04-06T00:53:58;11.07;;;5.33;;
40072;SDS011;25774;52.256;9.356;2023-04-06T00:56:23;9.83;;;5.07;;
40072;SDS011;25774;52.256;9.356;2023-04-06T00:58:49;12.67;;;6.60;;
40072;SDS011;25774;52.256;9.356;2023-04-06T01:01:16;10.65;;;6.13;;
40072;SDS011;25774;52.256;9.356;2023-04-06T01:03:51;9.27;;;5.88;;
40072;SDS011;25774;52.256;9.356;2023-04-06T01:06:16;10.73;;;6.38;;
40072;SDS011;25774;52.256;9.356;2023-04-06T01:08:42;11.32;;;6.50;;
40072;SDS011;25774;52.256;9.356;2023-04-06T01:11:07;10.67;;;6.10;;
40072;SDS011;25774;52.256;9.356;2023-04-06T01:13:32;11.37;;;6.40;;
40072;SDS011;25774;52.256;9.356;2023-04-06T01:15:57;8.33;;;4.33;;
40072;SDS011;25774;52.256;9.356;2023-04-06T01:18:26;6.97;;;3.77;;
40072;SDS011;25774;52.256;9.356;2023-04-06T01:20:52;7.97;;;3.85;;
40072;SDS011;25774;52.256;9.356;2023-04-06T01:23:17;8.97;;;3.87;;
40072;SDS011;25774;52.256;9.356;2023-04-06T01:25:42;8.07;;;3.83;;
40072;SDS011;25774;52.256;9.356;2023-04-06T01:28:07;7.27;;;4.47;;
40072;SDS011;25774;52.256;9.356;2023-04-06T01:30:33;7.00;;;3.93;;
40072;SDS011;25774;52.256;9.356;2023-04-06T01:32:58;7.00;;;4.00;;
40072;SDS011;25774;52.256;9.356;2023-04-06T01:35:23;9.87;;;4.70;;
40072;SDS011;25774;52.256;9.356;2023-04-06T01:37:49;9.70;;;3.70;;
40072;SDS011;25774;52.256;9.356;2023-04-06T01:40:14;9.53;;;4.83;;
40072;SDS011;25774;52.256;9.356;2023-04-06T01:42:39;9.77;;;5.00;;
40072;SDS011;25774;52.256;9.356;2023-04-06T01:45:05;8.70;;;5.13;;
40072;SDS011;25774;52.256;9.356;2023-04-06T01:47:30;8.83;;;4.77;;
40072;SDS011;25774;52.256;9.356;2023-04-06T01:49:55;9.50;;;5.50;;
40072;SDS011;25774;52.256;9.356;2023-04-06T01:52:21;12.40;;;5.03;;
40072;SDS011;25774;52.256;9.356;2023-04-06T01:54:46;10.37;;;5.70;;
40072;SDS011;25774;52.256;9.356;2023-04-06T01:57:11;20.13;;;6.43;;
40072;SDS011;25774;52.256;9.356;2023-04-06T01:59:37;10.20;;;5.53;;
40072;SDS011;25774;52.256;9.356;2023-04-06T02:02:02;13.27;;;6.63;;
40072;SDS011;25774;52.256;9.356;2023-04-06T02:04:27;9.83;;;5.67;;
40072;SDS011;25774;52.256;9.356;2023-04-06T02:06:52;15.43;;;5.70;;
40072;SDS011;25774;52.256;9.356;2023-04-06T02:09:17;12.77;;;5.63;;
40072;SDS011;25774;52.256;9.356;2023-04-06T02:11:43;11.30;;;5.73;;
40072;SDS011;25774;52.256;9.356;2023-04-06T02:14:08;10.60;;;6.00;;
40072;SDS011;25774;52.256;9.356;2023-04-06T02:16:33;14.53;;;6.47;;
40072;SDS011;25774;52.256;9.356;2023-04-06T02:18:59;11.10;;;5.57;;
40072;SDS011;25774;52.256;9.356;2023-04-06T02:21:24;12.63;;;6.03;;
40072;SDS011;25774;52.256;9.356;2023-04-06T02:23:49;13.50;;;6.30;;
40072;SDS011;25774;52.256;9.356;2023-04-06T02:26:15;10.83;;;5.70;;
40072;SDS011;25774;52.256;9.356;2023-04-06T02:28:40;10.70;;;5.10;;
40072;SDS011;25774;52.256;9.356;2023-04-06T02:31:05;10.13;;;5.47;;
40072;SDS011;25774;52.256;9.356;2023-04-06T02:33:34;11.73;;;5.70;;
40072;SDS011;25774;52.256;9.356;2023-04-06T02:35:59;10.70;;;5.35;;
40072;SDS011;25774;52.256;9.356;2023-04-06T02:38:24;11.13;;;5.20;;
40072;SDS011;25774;52.256;9.356;2023-04-06T02:40:49;10.23;;;5.27;;
40072;SDS011;25774;52.256;9.356;2023-04-06T02:43:15;10.60;;;5.25;;
40072;SDS011;25774;52.256;9.356;2023-04-06T02:45:42;8.52;;;4.88;;
40072;SDS011;25774;52.256;9.356;2023-04-06T02:48:07;9.97;;;5.57;;
40072;SDS011;25774;52.256;9.356;2023-04-06T02:50:32;10.50;;;5.57;;
40072;SDS011;25774;52.256;9.356;2023-04-06T02:52:58;10.07;;;5.20;;
40072;SDS011;25774;52.256;9.356;2023-04-06T02:55:26;12.60;;;5.35;;
40072;SDS011;25774;52.256;9.356;2023-04-06T02:57:51;10.25;;;5.63;;
40072;SDS011;25774;52.256;9.356;2023-04-06T03:00:17;11.00;;;4.73;;
40072;SDS011;25774;52.256;9.356;2023-04-06T03:05:08;11.23;;;5.47;;
40072;SDS011;25774;52.256;9.356;2023-04-06T03:07:33;11.70;;;5.53;;
40072;SDS011;25774;52.256;9.356;2023-04-06T03:09:58;8.07;;;4.90;;
40072;SDS011;25774;52.256;9.356;2023-04-06T03:12:23;10.97;;;4.63;;
40072;SDS011;25774;52.256;9.356;2023-04-06T03:14:49;11.53;;;4.87;;
40072;SDS011;25774;52.256;9.356;2023-04-06T03:17:15;9.00;;;4.33;;
40072;SDS011;25774;52.256;9.356;2023-04-06T03:22:05;10.57;;;4.38;;
40072;SDS011;25774;52.256;9.356;2023-04-06T03:24:30;9.90;;;4.97;;
40072;SDS011;25774;52.256;9.356;2023-04-06T03:26:56;7.57;;;4.30;;
40072;SDS011;25774;52.256;9.356;2023-04-06T03:29:21;9.07;;;4.60;;
40072;SDS011;25774;52.256;9.356;2023-04-06T03:31:46;11.40;;;4.53;;
40072;SDS011;25774;52.256;9.356;2023-04-06T03:34:11;6.87;;;4.10;;
40072;SDS011;25774;52.256;9.356;2023-04-06T03:36:37;8.77;;;3.93;;
40072;SDS011;25774;52.256;9.356;2023-04-06T03:39:02;7.33;;;4.60;;
40072;SDS011;25774;52.256;9.356;2023-04-06T03:41:27;9.53;;;4.93;;
40072;SDS011;25774;52.256;9.356;2023-04-06T03:43:52;9.83;;;4.63;;
40072;SDS011;25774;52.256;9.356;2023-04-06T03:46:20;7.70;;;4.63;;
40072;SDS011;25774;52.256;9.356;2023-04-06T03:48:47;8.63;;;4.32;;
40072;SDS011;25774;52.256;9.356;2023-04-06T03:51:12;11.85;;;4.47;;
40072;SDS011;25774;52.256;9.356;2023-04-06T03:53:38;8.13;;;4.60;;
40072;SDS011;25774;52.256;9.356;2023-04-06T03:56:03;9.53;;;4.57;;
40072;SDS011;25774;52.256;9.356;2023-04-06T03:58:28;8.60;;;4.73;;
40072;SDS011;25774;52.256;9.356;2023-04-06T04:00:53;7.70;;;4.93;;
40072;SDS011;25774;52.256;9.356;2023-04-06T04:03:19;10.07;;;4.30;;
40072;SDS011;25774;52.256;9.356;2023-04-06T04:05:44;8.67;;;4.83;;
40072;SDS011;25774;52.256;9.356;2023-04-06T04:08:09;9.13;;;5.33;;
40072;SDS011;25774;52.256;9.356;2023-04-06T04:10:35;8.07;;;4.60;;
40072;SDS011;25774;52.256;9.356;2023-04-06T04:13:00;8.40;;;5.17;;
40072;SDS011;25774;52.256;9.356;2023-04-06T04:15:25;10.57;;;5.27;;
40072;SDS011;25774;52.256;9.356;2023-04-06T04:17:52;9.80;;;5.57;;
40072;SDS011;25774;52.256;9.356;2023-04-06T04:20:17;12.10;;;4.97;;
40072;SDS011;25774;52.256;9.356;2023-04-06T04:22:42;14.87;;;5.97;;
40072;SDS011;25774;52.256;9.356;2023-04-06T04:25:08;9.43;;;5.37;;
40072;SDS011;25774;52.256;9.356;2023-04-06T04:27:33;9.38;;;4.70;;
40072;SDS011;25774;52.256;9.356;2023-04-06T04:29:58;8.93;;;5.03;;
40072;SDS011;25774;52.256;9.356;2023-04-06T04:32:23;9.33;;;5.00;;
40072;SDS011;25774;52.256;9.356;2023-04-06T04:34:59;10.68;;;5.55;;
40072;SDS011;25774;52.256;9.356;2023-04-06T04:37:24;11.63;;;5.53;;
40072;SDS011;25774;52.256;9.356;2023-04-06T04:39:49;9.80;;;5.43;;
40072;SDS011;25774;52.256;9.356;2023-04-06T04:42:15;10.98;;;5.93;;
40072;SDS011;25774;52.256;9.356;2023-04-06T04:44:40;12.90;;;5.43;;
40072;SDS011;25774;52.256;9.356;2023-04-06T04:47:05;11.20;;;6.43;;
40072;SDS011;25774;52.256;9.356;2023-04-06T04:49:31;10.03;;;5.30;;
40072;SDS011;25774;52.256;9.356;2023-04-06T04:51:56;9.37;;;5.63;;
40072;SDS011;25774;52.256;9.356;2023-04-06T04:54:22;11.70;;;6.00;;
40072;SDS011;25774;52.256;9.356;2023-04-06T04:56:47;10.85;;;5.68;;
40072;SDS011;25774;52.256;9.356;2023-04-06T04:59:12;12.17;;;5.83;;
40072;SDS011;25774;52.256;9.356;2023-04-06T05:01:38;10.43;;;6.10;;
40072;SDS011;25774;52.256;9.356;2023-04-06T05:04:03;10.17;;;6.03;;
40072;SDS011;25774;52.256;9.356;2023-04-06T05:06:28;14.70;;;6.47;;
40072;SDS011;25774;52.256;9.356;2023-04-06T05:08:53;9.17;;;5.27;;
40072;SDS011;25774;52.256;9.356;2023-04-06T05:11:19;12.23;;;5.57;;
40072;SDS011;25774;52.256;9.356;2023-04-06T05:13:44;10.90;;;6.10;;
40072;SDS011;25774;52.256;9.356;2023-04-06T05:16:10;12.27;;;6.40;;
40072;SDS011;25774;52.256;9.356;2023-04-06T05:18:35;8.50;;;5.73;;
40072;SDS011;25774;52.256;9.356;2023-04-06T05:21:01;10.00;;;6.00;;
40072;SDS011;25774;52.256;9.356;2023-04-06T05:23:27;11.23;;;6.00;;
40072;SDS011;25774;52.256;9.356;2023-04-06T05:25:52;15.80;;;6.73;;
40072;SDS011;25774;52.256;9.356;2023-04-06T05:28:17;13.13;;;6.23;;
40072;SDS011;25774;52.256;9.356;2023-04-06T05:30:43;11.67;;;6.73;;
40072;SDS011;25774;52.256;9.356;2023-04-06T05:33:09;11.02;;;6.43;;
40072;SDS011;25774;52.256;9.356;2023-04-06T05:35:35;15.38;;;6.35;;
40072;SDS011;25774;52.256;9.356;2023-04-06T05:38:01;10.63;;;5.97;;
40072;SDS011;25774;52.256;9.356;2023-04-06T05:40:26;14.53;;;6.50;;
40072;SDS011;25774;52.256;9.356;2023-04-06T05:42:51;11.00;;;6.20;;
40072;SDS011;25774;52.256;9.356;2023-04-06T05:45:16;14.97;;;6.50;;
40072;SDS011;25774;52.256;9.356;2023-04-06T05:47:43;12.20;;;6.53;;
40072;SDS011;25774;52.256;9.356;2023-04-06T05:50:09;13.57;;;6.30;;
40072;SDS011;25774;52.256;9.356;2023-04-06T05:52:34;13.20;;;6.63;;
40072;SDS011;25774;52.256;9.356;2023-04-06T05:55:00;11.73;;;6.60;;
40072;SDS011;25774;52.256;9.356;2023-04-06T05:57:25;12.27;;;5.93;;
40072;SDS011;25774;52.256;9.356;2023-04-06T05:59:50;12.03;;;6.27;;
40072;SDS011;25774;52.256;9.356;2023-04-06T06:02:15;9.00;;;5.80;;
40072;SDS011;25774;52.256;9.356;2023-04-06T06:04:40;11.13;;;5.70;;
40072;SDS011;25774;52.256;9.356;2023-04-06T06:07:06;15.40;;;6.57;;
40072;SDS011;25774;52.256;9.356;2023-04-06T06:09:31;13.60;;;6.93;;
40072;SDS011;25774;52.256;9.356;2023-04-06T06:11:56;14.37;;;7.20;;
40072;SDS011;25774;52.256;9.356;2023-04-06T06:14:21;13.47;;;7.07;;
40072;SDS011;25774;52.256;9.356;2023-04-06T06:16:49;9.30;;;6.20;;
40072;SDS011;25774;52.256;9.356;2023-04-06T06:19:15;12.00;;;6.70;;
40072;SDS011;25774;52.256;9.356;2023-04-06T06:21:40;13.10;;;6.70;;
40072;SDS011;25774;52.256;9.356;2023-04-06T06:24:06;14.10;;;6.33;;
40072;SDS011;25774;52.256;9.356;2023-04-06T06:26:31;9.63;;;6.35;;
40072;SDS011;25774;52.256;9.356;2023-04-06T06:28:56;16.80;;;6.33;;
40072;SDS011;25774;52.256;9.356;2023-04-06T06:31:22;10.57;;;5.50;;
40072;SDS011;25774;52.256;9.356;2023-04-06T06:33:48;13.60;;;7.05;;
40072;SDS011;25774;52.256;9.356;2023-04-06T06:36:15;12.10;;;6.65;;
40072;SDS011;25774;52.256;9.356;2023-04-06T06:38:40;10.93;;;6.47;;
40072;SDS011;25774;52.256;9.356;2023-04-06T06:41:05;11.27;;;5.63;;
40072;SDS011;25774;52.256;9.356;2023-04-06T06:43:30;18.07;;;6.63;;
40072;SDS011;25774;52.256;9.356;2023-04-06T06:45:56;10.37;;;5.83;;
40072;SDS011;25774;52.256;9.356;2023-04-06T06:48:23;12.87;;;6.13;;
40072;SDS011;25774;52.256;9.356;2023-04-06T06:50:48;9.70;;;5.13;;
40072;SDS011;25774;52.256;9.356;2023-04-06T06:53:13;10.67;;;6.07;;
40072;SDS011;25774;52.256;9.356;2023-04-06T06:55:39;11.27;;;5.72;;
40072;SDS011;25774;52.256;9.356;2023-04-06T06:58:05;10.90;;;6.53;;
40072;SDS011;25774;52.256;9.356;2023-04-06T07:00:31;9.02;;;5.20;;
40072;SDS011;25774;52.256;9.356;2023-04-06T07:02:56;11.50;;;5.73;;
40072;SDS011;25774;52.256;9.356;2023-04-06T07:05:21;10.77;;;6.00;;
40072;SDS011;25774;52.256;9.356;2023-04-06T07:07:46;10.17;;;5.73;;
40072;SDS011;25774;52.256;9.356;2023-04-06T07:10:11;13.23;;;5.53;;
40072;SDS011;25774;52.256;9.356;2023-04-06T07:12:37;11.77;;;5.73;;
40072;SDS011;25774;52.256;9.356;2023-04-06T07:15:02;8.73;;;4.63;;
40072;SDS011;25774;52.256;9.356;2023-04-06T07:17:27;13.33;;;5.80;;
40072;SDS011;25774;52.256;9.356;2023-04-06T07:19:53;10.93;;;5.63;;
40072;SDS011;25774;52.256;9.356;2023-04-06T07:22:19;10.55;;;5.32;;
40072;SDS011;25774;52.256;9.356;2023-04-06T07:24:44;8.17;;;5.53;;
40072;SDS011;25774;52.256;9.356;2023-04-06T07:27:09;9.00;;;4.80;;
40072;SDS011;25774;52.256;9.356;2023-04-06T07:29:34;7.30;;;4.90;;
40072;SDS011;25774;52.256;9.356;2023-04-06T07:31:59;10.03;;;5.27;;
40072;SDS011;25774;52.256;9.356;2023-04-06T07:34:25;8.93;;;4.87;;
40072;SDS011;25774;52.256;9.356;2023-04-06T07:36:50;8.37;;;5.00;;
40072;SDS011;25774;52.256;9.356;2023-04-06T07:39:17;8.82;;;5.45;;
40072;SDS011;25774;52.256;9.356;2023-04-06T07:41:44;9.77;;;5.33;;
40072;SDS011;25774;52.256;9.356;2023-04-06T07:44:10;11.77;;;4.72;;
40072;SDS011;25774;52.256;9.356;2023-04-06T07:46:35;7.50;;;4.63;;
40072;SDS011;25774;52.256;9.356;2023-04-06T07:49:02;8.90;;;4.43;;
40072;SDS011;25774;52.256;9.356;2023-04-06T07:51:27;7.75;;;4.18;;
40072;SDS011;25774;52.256;9.356;2023-04-06T07:53:52;9.53;;;4.83;;
40072;SDS011;25774;52.256;9.356;2023-04-06T07:56:18;8.73;;;4.33;;
40072;SDS011;25774;52.256;9.356;2023-04-06T07:58:43;11.83;;;4.67;;
40072;SDS011;25774;52.256;9.356;2023-04-06T08:01:09;10.60;;;4.93;;
40072;SDS011;25774;52.256;9.356;2023-04-06T08:03:34;10.47;;;5.10;;
40072;SDS011;25774;52.256;9.356;2023-04-06T08:06:00;10.67;;;4.27;;
40072;SDS011;25774;52.256;9.356;2023-04-06T08:08:25;9.20;;;4.63;;
40072;SDS011;25774;52.256;9.356;2023-04-06T08:10:50;6.60;;;3.80;;
40072;SDS011;25774;52.256;9.356;2023-04-06T08:13:15;7.53;;;3.87;;
40072;SDS011;25774;52.256;9.356;2023-04-06T08:15:41;7.40;;;4.07;;
40072;SDS011;25774;52.256;9.356;2023-04-06T08:18:06;6.80;;;4.13;;
40072;SDS011;25774;52.256;9.356;2023-04-06T08:20:31;8.50;;;4.07;;
40072;SDS011;25774;52.256;9.356;2023-04-06T08:22:57;8.13;;;4.73;;
40072;SDS011;25774;52.256;9.356;2023-04-06T08:25:22;6.90;;;3.35;;
40072;SDS011;25774;52.256;9.356;2023-04-06T08:27:48;7.17;;;4.63;;
40072;SDS011;25774;52.256;9.356;2023-04-06T08:30:13;11.10;;;4.43;;
40072;SDS011;25774;52.256;9.356;2023-04-06T08:32:40;12.77;;;4.22;;
40072;SDS011;25774;52.256;9.356;2023-04-06T08:35:06;7.15;;;4.25;;
40072;SDS011;25774;52.256;9.356;2023-04-06T08:37:31;9.03;;;4.50;;
40072;SDS011;25774;52.256;9.356;2023-04-06T08:39:57;8.70;;;3.90;;
40072;SDS011;25774;52.256;9.356;2023-04-06T08:42:22;9.57;;;4.47;;
40072;SDS011;25774;52.256;9.356;2023-04-06T08:44:50;9.32;;;3.90;;
40072;SDS011;25774;52.256;9.356;2023-04-06T08:47:17;7.30;;;4.07;;
40072;SDS011;25774;52.256;9.356;2023-04-06T08:49:43;8.00;;;4.53;;
40072;SDS011;25774;52.256;9.356;2023-04-06T08:52:09;8.75;;;3.90;;
40072;SDS011;25774;52.256;9.356;2023-04-06T08:54:35;10.00;;;4.18;;
40072;SDS011;25774;52.256;9.356;2023-04-06T08:57:00;8.93;;;4.57;;
40072;SDS011;25774;52.256;9.356;2023-04-06T08:59:26;7.82;;;4.47;;
40072;SDS011;25774;52.256;9.356;2023-04-06T09:01:52;8.03;;;3.90;;
40072;SDS011;25774;52.256;9.356;2023-04-06T09:04:17;7.75;;;4.22;;
40072;SDS011;25774;52.256;9.356;2023-04-06T09:06:43;7.63;;;4.53;;
40072;SDS011;25774;52.256;9.356;2023-04-06T09:09:08;9.57;;;4.07;;
40072;SDS011;25774;52.256;9.356;2023-04-06T09:11:46;6.27;;;3.80;;
40072;SDS011;25774;52.256;9.356;2023-04-06T09:14:12;6.78;;;3.72;;
40072;SDS011;25774;52.256;9.356;2023-04-06T09:16:40;9.37;;;4.50;;
40072;SDS011;25774;52.256;9.356;2023-04-06T09:19:06;8.73;;;4.07;;
40072;SDS011;25774;52.256;9.356;2023-04-06T09:21:32;9.60;;;4.40;;
40072;SDS011;25774;52.256;9.356;2023-04-06T09:23:58;6.53;;;3.75;;
40072;SDS011;25774;52.256;9.356;2023-04-06T09:26:24;8.13;;;4.57;;
40072;SDS011;25774;52.256;9.356;2023-04-06T09:28:51;8.20;;;3.88;;
40072;SDS011;25774;52.256;9.356;2023-04-06T09:31:22;8.43;;;4.07;;
40072;SDS011;25774;52.256;9.356;2023-04-06T09:33:48;8.80;;;3.55;;
40072;SDS011;25774;52.256;9.356;2023-04-06T09:36:13;5.53;;;3.80;;
40072;SDS011;25774;52.256;9.356;2023-04-06T09:38:53;7.43;;;3.47;;
40072;SDS011;25774;52.256;9.356;2023-04-06T09:41:23;9.38;;;4.80;;
40072;SDS011;25774;52.256;9.356;2023-04-06T09:43:49;6.68;;;3.58;;
40072;SDS011;25774;52.256;9.356;2023-04-06T09:46:14;9.95;;;4.15;;
40072;SDS011;25774;52.256;9.356;2023-04-06T09:48:40;6.88;;;3.92;;
40072;SDS011;25774;52.256;9.356;2023-04-06T09:51:06;9.57;;;5.20;;
40072;SDS011;25774;52.256;9.356;2023-04-06T09:53:31;7.83;;;4.30;;
40072;SDS011;25774;52.256;9.356;2023-04-06T09:56:02;7.30;;;3.58;;
40072;SDS011;25774;52.256;9.356;2023-04-06T09:58:27;7.80;;;4.03;;
40072;SDS011;25774;52.256;9.356;2023-04-06T10:01:10;7.85;;;3.60;;
40072;SDS011;25774;52.256;9.356;2023-04-06T10:04:13;7.95;;;4.22;;
40072;SDS011;25774;52.256;9.356;2023-04-06T10:06:28;6.55;;;3.40;;
40072;SDS011;25774;52.256;9.356;2023-04-06T10:08:57;9.48;;;3.83;;
40072;SDS011;25774;52.256;9.356;2023-04-06T10:11:23;8.50;;;4.27;;
40072;SDS011;25774;52.256;9.356;2023-04-06T10:13:48;9.97;;;3.27;;
40072;SDS011;25774;52.256;9.356;2023-04-06T10:18:41;7.35;;;3.70;;
40072;SDS011;25774;52.256;9.356;2023-04-06T10:21:09;9.88;;;4.05;;
40072;SDS011;25774;52.256;9.356;2023-04-06T10:23:46;9.73;;;4.38;;
40072;SDS011;25774;52.256;9.356;2023-04-06T10:26:13;8.43;;;4.13;;
40072;SDS011;25774;52.256;9.356;2023-04-06T10:28:41;8.32;;;4.35;;
40072;SDS011;25774;52.256;9.356;2023-04-06T10:31:06;7.68;;;4.32;;
40072;SDS011;25774;52.256;9.356;2023-04-06T10:33:33;7.33;;;4.10;;
40072;SDS011;25774;52.256;9.356;2023-04-06T10:36:09;9.45;;;4.90;;
40072;SDS011;25774;52.256;9.356;2023-04-06T10:38:34;7.05;;;3.78;;
40072;SDS011;25774;52.256;9.356;2023-04-06T10:41:03;8.65;;;3.75;;
40072;SDS011;25774;52.256;9.356;2023-04-06T10:43:32;7.43;;;4.18;;
40072;SDS011;25774;52.256;9.356;2023-04-06T10:46:00;7.45;;;4.40;;
40072;SDS011;25774;52.256;9.356;2023-04-06T10:48:35;11.90;;;4.85;;
40072;SDS011;25774;52.256;9.356;2023-04-06T10:51:00;8.02;;;4.00;;
40072;SDS011;25774;52.256;9.356;2023-04-06T10:53:26;9.40;;;3.83;;
40072;SDS011;25774;52.256;9.356;2023-04-06T10:55:53;7.47;;;4.25;;
40072;SDS011;25774;52.256;9.356;2023-04-06T10:58:19;9.35;;;4.43;;
40072;SDS011;25774;52.256;9.356;2023-04-06T11:00:46;8.83;;;5.07;;
40072;SDS011;25774;52.256;9.356;2023-04-06T11:03:11;8.55;;;4.18;;
40072;SDS011;25774;52.256;9.356;2023-04-06T11:05:36;9.03;;;4.43;;
40072;SDS011;25774;52.256;9.356;2023-04-06T11:08:02;10.80;;;5.00;;
40072;SDS011;25774;52.256;9.356;2023-04-06T11:10:27;9.77;;;4.90;;
40072;SDS011;25774;52.256;9.356;2023-04-06T11:12:56;8.27;;;3.80;;
40072;SDS011;25774;52.256;9.356;2023-04-06T11:15:21;7.43;;;4.00;;
40072;SDS011;25774;52.256;9.356;2023-04-06T11:17:47;7.90;;;4.40;;
40072;SDS011;25774;52.256;9.356;2023-04-06T11:20:14;8.35;;;4.20;;
40072;SDS011;25774;52.256;9.356;2023-04-06T11:22:49;9.97;;;3.67;;
40072;SDS011;25774;52.256;9.356;2023-04-06T11:25:14;7.40;;;4.20;;
40072;SDS011;25774;52.256;9.356;2023-04-06T11:27:41;10.73;;;4.70;;
40072;SDS011;25774;52.256;9.356;2023-04-06T11:32:39;10.57;;;4.68;;
40072;SDS011;25774;52.256;9.356;2023-04-06T11:35:05;7.68;;;4.90;;
40072;SDS011;25774;52.256;9.356;2023-04-06T11:37:30;8.67;;;4.67;;
40072;SDS011;25774;52.256;9.356;2023-04-06T11:39:57;9.90;;;4.88;;
40072;SDS011;25774;52.256;9.356;2023-04-06T11:42:26;8.43;;;4.33;;
40072;SDS011;25774;52.256;9.356;2023-04-06T11:44:54;9.30;;;4.60;;
40072;SDS011;25774;52.256;9.356;2023-04-06T11:47:20;10.45;;;4.93;;
40072;SDS011;25774;52.256;9.356;2023-04-06T11:49:51;9.15;;;4.85;;
40072;SDS011;25774;52.256;9.356;2023-04-06T11:52:21;9.63;;;5.43;;
40072;SDS011;25774;52.256;9.356;2023-04-06T11:54:47;8.68;;;5.00;;
40072;SDS011;25774;52.256;9.356;2023-04-06T11:57:13;14.25;;;6.25;;
40072;SDS011;25774;52.256;9.356;2023-04-06T11:59:38;8.50;;;4.67;;
40072;SDS011;25774;52.256;9.356;2023-04-06T12:02:03;10.43;;;4.87;;
40072;SDS011;25774;52.256;9.356;2023-04-06T12:04:30;8.57;;;4.73;;
40072;SDS011;25774;52.256;9.356;2023-04-06T12:06:55;8.27;;;4.70;;
40072;SDS011;25774;52.256;9.356;2023-04-06T12:09:20;9.73;;;5.00;;
40072;SDS011;25774;52.256;9.356;2023-04-06T12:11:46;9.67;;;5.63;;
40072;SDS011;25774;52.256;9.356;2023-04-06T12:14:11;10.33;;;5.00;;
40072;SDS011;25774;52.256;9.356;2023-04-06T12:16:37;8.23;;;4.65;;
40072;SDS011;25774;52.256;9.356;2023-04-06T12:19:02;8.73;;;4.63;;
40072;SDS011;25774;52.256;9.356;2023-04-06T12:21:28;9.02;;;5.32;;
40072;SDS011;25774;52.256;9.356;2023-04-06T12:23:54;7.03;;;4.35;;
40072;SDS011;25774;52.256;9.356;2023-04-06T12:26:20;7.17;;;4.70;;
40072;SDS011;25774;52.256;9.356;2023-04-06T12:28:45;11.30;;;4.88;;
40072;SDS011;25774;52.256;9.356;2023-04-06T12:31:14;8.23;;;4.47;;
40072;SDS011;25774;52.256;9.356;2023-04-06T12:33:40;8.77;;;4.90;;
40072;SDS011;25774;52.256;9.356;2023-04-06T12:36:10;8.90;;;4.60;;
40072;SDS011;25774;52.256;9.356;2023-04-06T12:38:36;8.10;;;4.28;;
40072;SDS011;25774;52.256;9.356;2023-04-06T12:41:03;7.78;;;4.80;;
40072;SDS011;25774;52.256;9.356;2023-04-06T12:43:28;6.13;;;3.67;;
40072;SDS011;25774;52.256;9.356;2023-04-06T12:45:54;7.37;;;3.77;;
40072;SDS011;25774;52.256;9.356;2023-04-06T12:48:20;9.25;;;4.10;;
40072;SDS011;25774;52.256;9.356;2023-04-06T12:50:53;8.43;;;4.40;;
40072;SDS011;25774;52.256;9.356;2023-04-06T12:53:18;9.95;;;4.82;;
40072;SDS011;25774;52.256;9.356;2023-04-06T12:55:44;8.43;;;4.27;;
40072;SDS011;25774;52.256;9.356;2023-04-06T12:58:10;10.13;;;4.25;;
40072;SDS011;25774;52.256;9.356;2023-04-06T13:00:36;9.05;;;4.00;;
40072;SDS011;25774;52.256;9.356;2023-04-06T13:03:01;9.47;;;4.87;;
40072;SDS011;25774;52.256;9.356;2023-04-06T13:05:27;8.50;;;4.50;;
40072;SDS011;25774;52.256;9.356;2023-04-06T13:07:52;11.00;;;4.80;;
40072;SDS011;25774;52.256;9.356;2023-04-06T13:10:17;8.67;;;4.37;;
40072;SDS011;25774;52.256;9.356;2023-04-06T13:12:42;7.37;;;4.20;;
40072;SDS011;25774;52.256;9.356;2023-04-06T13:15:08;7.80;;;4.27;;
40072;SDS011;25774;52.256;9.356;2023-04-06T13:17:33;10.43;;;4.70;;
40072;SDS011;25774;52.256;9.356;2023-04-06T13:19:58;8.53;;;4.40;;
40072;SDS011;25774;52.256;9.356;2023-04-06T13:22:23;8.87;;;4.63;;
40072;SDS011;25774;52.256;9.356;2023-04-06T13:24:48;7.83;;;4.20;;
40072;SDS011;25774;52.256;9.356;2023-04-06T13:27:14;8.57;;;4.70;;
40072;SDS011;25774;52.256;9.356;2023-04-06T13:29:39;6.73;;;4.20;;
40072;SDS011;25774;52.256;9.356;2023-04-06T13:32:05;7.63;;;3.70;;
40072;SDS011;25774;52.256;9.356;2023-04-06T13:34:30;6.80;;;4.00;;
40072;SDS011;25774;52.256;9.356;2023-04-06T13:36:55;9.50;;;5.13;;
40072;SDS011;25774;52.256;9.356;2023-04-06T13:39:20;9.67;;;4.83;;
40072;SDS011;25774;52.256;9.356;2023-04-06T13:41:45;8.33;;;4.50;;
40072;SDS011;25774;52.256;9.356;2023-04-06T13:44:11;8.57;;;5.00;;
40072;SDS011;25774;52.256;9.356;2023-04-06T13:46:36;8.70;;;5.40;;
40072;SDS011;25774;52.256;9.356;2023-04-06T13:49:02;10.25;;;5.25;;
40072;SDS011;25774;52.256;9.356;2023-04-06T13:51:27;7.27;;;4.87;;
40072;SDS011;25774;52.256;9.356;2023-04-06T13:53:52;9.53;;;4.87;;
40072;SDS011;25774;52.256;9.356;2023-04-06T13:56:18;9.15;;;4.97;;
40072;SDS011;25774;52.256;9.356;2023-04-06T13:58:43;9.50;;;5.47;;
40072;SDS011;25774;52.256;9.356;2023-04-06T14:01:09;9.23;;;4.27;;
40072;SDS011;25774;52.256;9.356;2023-04-06T14:03:34;8.57;;;5.20;;
40072;SDS011;25774;52.256;9.356;2023-04-06T14:06:00;9.48;;;5.28;;
40072;SDS011;25774;52.256;9.356;2023-04-06T14:08:25;8.03;;;5.10;;
40072;SDS011;25774;52.256;9.356;2023-04-06T14:10:50;8.73;;;5.63;;
40072;SDS011;25774;52.256;9.356;2023-04-06T14:13:16;9.67;;;5.20;;
40072;SDS011;25774;52.256;9.356;2023-04-06T14:15:42;9.60;;;5.00;;
40072;SDS011;25774;52.256;9.356;2023-04-06T14:18:07;9.38;;;5.65;;
40072;SDS011;25774;52.256;9.356;2023-04-06T14:20:32;11.27;;;5.85;;
40072;SDS011;25774;52.256;9.356;2023-04-06T14:22:59;8.30;;;4.83;;
40072;SDS011;25774;52.256;9.356;2023-04-06T14:25:25;8.45;;;5.30;;
40072;SDS011;25774;52.256;9.356;2023-04-06T14:27:50;8.20;;;4.78;;
40072;SDS011;25774;52.256;9.356;2023-04-06T14:30:16;8.70;;;3.77;;
40072;SDS011;25774;52.256;9.356;2023-04-06T14:32:41;7.13;;;3.80;;
40072;SDS011;25774;52.256;9.356;2023-04-06T14:35:07;8.88;;;4.38;;
40072;SDS011;25774;52.256;9.356;2023-04-06T14:37:32;6.65;;;3.55;;
40072;SDS011;25774;52.256;9.356;2023-04-06T14:39:57;9.77;;;4.57;;
40072;SDS011;25774;52.256;9.356;2023-04-06T14:42:22;9.17;;;4.10;;
40072;SDS011;25774;52.256;9.356;2023-04-06T14:44:49;9.03;;;4.60;;